Terminal Aerodrome Forecast
Issued by NWS

Home | Current Version | Previous Version | Text Only | Print | Product List | Glossary On
Versions: 1 2 3 4 5 6 7 8 9 10 11 12 13 14 15
249
FTUS44 KOHX 220520
TAFCKV
TAF
KCKV 220520Z 2206/2306 09005KT P6SM BKN250
     FM220900 10006KT P6SM VCSH BKN050 OVC120
     FM221200 10010KT 5SM -SHRA OVC040
     FM221500 10012G18KT 4SM -SHRA OVC025
     FM222100 09014G20KT 3SM -SHRA OVC015=

USA.gov is the U.S. government's official web portal to all federal, state and local government web resources and services.